createdAt,value
2018-03-27T00:00:15.124Z,0
2018-03-27T00:01:16.732Z,0
2018-03-27T00:02:18.340Z,0
2018-03-27T00:03:19.947Z,0
2018-03-27T00:04:21.554Z,0
2018-03-27T00:05:23.164Z,0
2018-03-27T00:06:24.769Z,0
2018-03-27T00:07:26.368Z,0
2018-03-27T00:08:27.981Z,0
2018-03-27T00:09:29.588Z,0
2018-03-27T00:10:31.189Z,0
2018-03-27T00:11:32.801Z,0
2018-03-27T00:12:34.403Z,0
2018-03-27T00:13:36.013Z,0
2018-03-27T00:14:37.621Z,0
2018-03-27T00:15:39.224Z,0
2018-03-27T00:16:40.833Z,0
2018-03-27T00:17:42.439Z,0
2018-03-27T00:18:44.042Z,0
2018-03-27T00:19:45.648Z,0
2018-03-27T00:20:47.258Z,0
2018-03-27T00:21:48.867Z,0
2018-03-27T00:22:50.470Z,0
2018-03-27T00:23:52.080Z,0
2018-03-27T00:24:53.684Z,0
2018-03-27T00:25:55.286Z,0
2018-03-27T00:26:56.891Z,0
2018-03-27T00:27:58.502Z,0
2018-03-27T00:29:00.110Z,0
2018-03-27T00:30:01.710Z,0
2018-03-27T00:31:03.323Z,0
2018-03-27T00:32:04.932Z,0
2018-03-27T00:33:06.537Z,0
2018-03-27T00:34:08.146Z,0
2018-03-27T00:35:09.755Z,0
2018-03-27T00:36:11.360Z,0
2018-03-27T00:37:12.960Z,0
2018-03-27T00:38:14.568Z,0
2018-03-27T00:39:16.174Z,0
2018-03-27T00:40:17.783Z,0
2018-03-27T00:41:19.384Z,0
2018-03-27T00:42:20.991Z,0
2018-03-27T00:43:22.600Z,0
2018-03-27T00:44:24.204Z,0
2018-03-27T00:45:25.806Z,0
2018-03-27T00:46:27.421Z,0
2018-03-27T00:47:29.029Z,0
2018-03-27T00:48:30.634Z,0
2018-03-27T00:49:32.241Z,0
2018-03-27T00:50:33.843Z,0
2018-03-27T00:51:35.446Z,0
2018-03-27T00:52:37.051Z,0
2018-03-27T00:53:38.658Z,0
2018-03-27T00:54:40.273Z,0
2018-03-27T00:55:41.880Z,0
2018-03-27T00:56:43.490Z,0
2018-03-27T00:57:45.089Z,0
2018-03-27T00:58:46.694Z,0
2018-03-27T00:59:48.297Z,0
2018-03-27T01:00:49.905Z,0
2018-03-27T01:01:51.516Z,0
2018-03-27T01:02:53.112Z,0
2018-03-27T01:03:54.722Z,0
2018-03-27T01:04:56.323Z,0
2018-03-27T01:05:57.924Z,0
2018-03-27T01:07:00.101Z,0
2018-03-27T01:08:01.711Z,0
2018-03-27T01:09:03.312Z,0
2018-03-27T01:10:04.922Z,0
2018-03-27T01:11:06.530Z,0
2018-03-27T01:12:08.128Z,0
2018-03-27T01:13:09.737Z,0
2018-03-27T01:14:11.340Z,0
2018-03-27T01:15:12.942Z,0
2018-03-27T01:16:14.547Z,0
2018-03-27T01:17:16.153Z,0
2018-03-27T01:18:17.762Z,0
2018-03-27T01:19:19.360Z,0
2018-03-27T01:20:20.963Z,0
2018-03-27T01:21:22.571Z,0
2018-03-27T01:22:24.177Z,0
2018-03-27T01:23:25.786Z,0
2018-03-27T01:24:27.387Z,0
2018-03-27T01:25:28.994Z,0
2018-03-27T01:26:30.598Z,0
2018-03-27T01:27:32.207Z,0
2018-03-27T01:28:33.816Z,0
2018-03-27T01:29:35.417Z,0
2018-03-27T01:30:37.029Z,0
2018-03-27T01:31:38.631Z,0
2018-03-27T01:32:40.236Z,0
2018-03-27T01:33:41.838Z,0
2018-03-27T01:34:43.442Z,0
2018-03-27T01:35:45.044Z,0
2018-03-27T01:36:46.647Z,0
2018-03-27T01:37:48.258Z,0
2018-03-27T01:38:49.865Z,0
2018-03-27T01:39:51.467Z,0
2018-03-27T01:40:53.069Z,0
2018-03-27T01:41:54.677Z,0
2018-03-27T01:42:56.280Z,0
2018-03-27T01:43:57.887Z,0
2018-03-27T01:44:59.489Z,0
2018-03-27T01:46:01.099Z,0
2018-03-27T01:47:02.701Z,0
2018-03-27T01:48:04.310Z,0
2018-03-27T01:49:05.916Z,0
2018-03-27T01:50:07.526Z,0
2018-03-27T01:51:09.131Z,0
2018-03-27T01:52:10.736Z,0
2018-03-27T01:53:12.341Z,0
2018-03-27T01:54:13.949Z,0
2018-03-27T01:55:15.557Z,0
2018-03-27T01:56:17.162Z,0
2018-03-27T01:57:18.762Z,0
2018-03-27T01:58:20.374Z,0
2018-03-27T01:59:21.981Z,0
2018-03-27T02:00:23.586Z,0
2018-03-27T02:01:25.193Z,0
2018-03-27T02:02:26.799Z,0
2018-03-27T02:03:28.406Z,0
2018-03-27T02:04:30.013Z,0
2018-03-27T02:05:31.612Z,0
2018-03-27T02:06:33.232Z,0
2018-03-27T02:07:34.820Z,0
2018-03-27T02:08:36.430Z,0
2018-03-27T02:09:38.034Z,0
2018-03-27T02:10:39.637Z,0
2018-03-27T02:11:41.246Z,0
2018-03-27T02:12:42.856Z,0
2018-03-27T02:13:44.463Z,0
2018-03-27T02:14:46.066Z,0
2018-03-27T02:15:47.671Z,0
2018-03-27T02:16:49.276Z,0
2018-03-27T02:17:50.876Z,0
2018-03-27T02:18:52.487Z,0
2018-03-27T02:19:54.094Z,0
2018-03-27T02:20:55.698Z,0
2018-03-27T02:21:57.304Z,0
2018-03-27T02:22:58.913Z,0
2018-03-27T02:24:00.516Z,0
2018-03-27T02:25:02.125Z,0
2018-03-27T02:26:03.728Z,0
2018-03-27T02:27:05.336Z,0
2018-03-27T02:28:06.952Z,0
2018-03-27T02:29:08.559Z,0
2018-03-27T02:30:10.163Z,0
2018-03-27T02:31:11.772Z,0
2018-03-27T02:32:13.373Z,0
2018-03-27T02:33:14.982Z,0
2018-03-27T02:34:16.595Z,0
2018-03-27T02:35:18.191Z,0
2018-03-27T02:36:19.825Z,0
2018-03-27T02:37:21.430Z,0
2018-03-27T02:38:23.036Z,0
2018-03-27T02:39:24.654Z,0
2018-03-27T02:40:26.250Z,0
2018-03-27T02:41:27.859Z,0
2018-03-27T02:42:29.472Z,0
2018-03-27T02:43:31.070Z,0
2018-03-27T02:44:32.675Z,0
2018-03-27T02:45:34.278Z,0
2018-03-27T02:46:35.892Z,0
2018-03-27T02:47:37.494Z,0
2018-03-27T02:48:39.099Z,0
2018-03-27T02:49:40.705Z,0
2018-03-27T02:50:42.318Z,0
2018-03-27T02:51:43.923Z,0
2018-03-27T02:52:45.521Z,0
2018-03-27T02:53:47.131Z,0
2018-03-27T02:54:48.736Z,0
2018-03-27T02:55:50.345Z,0
2018-03-27T02:56:51.948Z,0
2018-03-27T02:57:53.565Z,0
2018-03-27T02:58:55.166Z,0
2018-03-27T02:59:56.826Z,0
2018-03-27T03:00:58.381Z,0
2018-03-27T03:01:59.984Z,0
2018-03-27T03:03:01.586Z,0
2018-03-27T03:04:03.205Z,0
2018-03-27T03:05:04.808Z,0
2018-03-27T03:06:06.414Z,0
2018-03-27T03:07:08.018Z,0
2018-03-27T03:08:09.624Z,0
2018-03-27T03:09:11.232Z,0
2018-03-27T03:10:12.859Z,0
2018-03-27T03:11:14.443Z,0
2018-03-27T03:12:16.052Z,0
2018-03-27T03:13:17.659Z,0
2018-03-27T03:14:19.262Z,0
2018-03-27T03:15:20.872Z,0
2018-03-27T03:16:22.471Z,0
2018-03-27T03:17:24.072Z,0
2018-03-27T03:18:25.683Z,0
2018-03-27T03:19:27.290Z,0
2018-03-27T03:20:28.895Z,0
2018-03-27T03:21:30.500Z,0
2018-03-27T03:22:32.102Z,0
2018-03-27T03:23:33.706Z,0
2018-03-27T03:24:35.315Z,0
2018-03-27T03:25:36.923Z,0
2018-03-27T03:26:38.535Z,0
2018-03-27T03:27:40.138Z,0
2018-03-27T03:28:41.748Z,0
2018-03-27T03:29:43.353Z,0
2018-03-27T03:30:44.960Z,0
2018-03-27T03:31:46.565Z,0
2018-03-27T03:32:48.172Z,0
2018-03-27T03:33:49.783Z,0
2018-03-27T03:34:51.386Z,0
2018-03-27T03:35:52.986Z,0
2018-03-27T03:36:54.598Z,0
2018-03-27T03:37:56.198Z,0
2018-03-27T03:38:57.808Z,0
2018-03-27T03:39:59.414Z,0
2018-03-27T03:41:01.020Z,0
2018-03-27T03:42:02.637Z,0
2018-03-27T03:43:04.236Z,0
2018-03-27T03:44:05.840Z,0
2018-03-27T03:45:07.448Z,0
2018-03-27T03:46:09.062Z,0
2018-03-27T03:47:10.666Z,0
2018-03-27T03:48:12.269Z,0
2018-03-27T03:49:13.877Z,0
2018-03-27T03:50:15.484Z,0
2018-03-27T03:51:17.094Z,0
2018-03-27T03:52:18.695Z,0
2018-03-27T03:53:20.299Z,0
2018-03-27T03:54:21.910Z,0
2018-03-27T03:55:23.514Z,0
2018-03-27T03:56:25.122Z,0
2018-03-27T03:57:26.730Z,0
2018-03-27T03:58:28.961Z,0
2018-03-27T03:59:30.571Z,0
2018-03-27T04:00:32.180Z,0
2018-03-27T04:01:33.783Z,0
2018-03-27T04:02:35.395Z,0
2018-03-27T04:03:37.005Z,0
2018-03-27T04:04:38.617Z,0
2018-03-27T04:05:40.226Z,0
2018-03-27T04:06:41.834Z,0
2018-03-27T04:07:43.439Z,0
2018-03-27T04:08:45.047Z,0
2018-03-27T04:09:46.654Z,0
2018-03-27T04:10:48.261Z,0
2018-03-27T04:11:49.867Z,0
2018-03-27T04:12:51.472Z,0
2018-03-27T04:13:53.081Z,0
2018-03-27T04:14:54.690Z,0
2018-03-27T04:15:56.295Z,0
2018-03-27T04:16:57.907Z,0
2018-03-27T04:17:59.515Z,0
2018-03-27T04:19:01.124Z,0
2018-03-27T04:20:02.732Z,0
2018-03-27T04:21:04.341Z,0
2018-03-27T04:22:05.945Z,0
2018-03-27T04:23:07.556Z,0
2018-03-27T04:24:09.163Z,0
2018-03-27T04:25:10.779Z,0
2018-03-27T04:26:12.401Z,0
2018-03-27T04:27:13.988Z,0
2018-03-27T04:28:15.593Z,0
2018-03-27T04:29:17.195Z,0
2018-03-27T04:30:18.808Z,0
2018-03-27T04:31:20.415Z,0
2018-03-27T04:32:22.034Z,0
2018-03-27T04:33:23.651Z,0
2018-03-27T04:34:25.260Z,0
2018-03-27T04:35:27.493Z,0
2018-03-27T04:36:28.422Z,0
2018-03-27T04:37:30.027Z,0
2018-03-27T04:38:31.639Z,0
2018-03-27T04:39:33.251Z,0
2018-03-27T04:40:34.852Z,0
2018-03-27T04:41:36.467Z,0
2018-03-27T04:42:38.066Z,0
2018-03-27T04:43:39.674Z,0
2018-03-27T04:44:41.280Z,0
2018-03-27T04:45:42.888Z,0
2018-03-27T04:46:44.500Z,4
2018-03-27T04:47:46.102Z,4
2018-03-27T04:48:47.712Z,0
2018-03-27T04:49:49.320Z,4
2018-03-27T04:50:50.927Z,4
2018-03-27T04:51:52.538Z,4
2018-03-27T04:52:54.146Z,4
2018-03-27T04:53:55.758Z,8
2018-03-27T04:54:57.365Z,12
2018-03-27T04:55:58.967Z,12
2018-03-27T04:57:00.575Z,16
2018-03-27T04:58:02.182Z,16
2018-03-27T04:59:03.794Z,20
2018-03-27T05:00:05.407Z,20
2018-03-27T05:01:07.014Z,28
2018-03-27T05:02:08.623Z,32
2018-03-27T05:03:10.231Z,40
2018-03-27T05:04:11.833Z,48
2018-03-27T05:05:13.446Z,56
2018-03-27T05:06:15.057Z,64
2018-03-27T05:07:16.665Z,76
2018-03-27T05:08:18.276Z,84
2018-03-27T05:09:19.887Z,100
2018-03-27T05:10:21.502Z,112
2018-03-27T05:11:23.112Z,132
2018-03-27T05:12:24.726Z,148
2018-03-27T05:13:26.333Z,168
2018-03-27T05:14:27.943Z,192
2018-03-27T05:15:29.559Z,212
2018-03-27T05:16:31.169Z,240
2018-03-27T05:17:32.777Z,268
2018-03-27T05:18:34.397Z,300
2018-03-27T05:19:36.003Z,332
2018-03-27T05:20:37.614Z,364
2018-03-27T05:21:39.229Z,400
2018-03-27T05:22:40.844Z,432
2018-03-27T05:23:42.449Z,460
2018-03-27T05:24:44.060Z,496
2018-03-27T05:25:45.674Z,552
2018-03-27T05:26:47.285Z,592
2018-03-27T05:27:48.899Z,636
2018-03-27T05:28:50.536Z,684
2018-03-27T05:29:52.118Z,736
2018-03-27T05:30:53.727Z,784
2018-03-27T05:31:55.338Z,836
2018-03-27T05:32:56.947Z,888
2018-03-27T05:33:58.565Z,940
2018-03-27T05:35:00.168Z,1000
2018-03-27T05:36:01.785Z,1060
2018-03-27T05:37:03.396Z,1116
2018-03-27T05:38:05.010Z,1180
2018-03-27T05:39:06.618Z,1244
2018-03-27T05:40:08.239Z,1308
2018-03-27T05:41:09.843Z,1380
2018-03-27T05:42:11.455Z,1448
2018-03-27T05:43:13.074Z,1520
2018-03-27T05:44:14.685Z,1596
2018-03-27T05:45:16.294Z,1668
2018-03-27T05:46:17.912Z,1752
2018-03-27T05:47:20.211Z,1840
2018-03-27T05:48:21.824Z,1932
2018-03-27T05:49:23.433Z,736
2018-03-27T05:50:25.053Z,1932
2018-03-27T05:51:26.665Z,2288
2018-03-27T05:52:28.281Z,1280
2018-03-27T05:53:29.888Z,2548
2018-03-27T05:54:32.334Z,2596
2018-03-27T05:55:33.945Z,2712
2018-03-27T05:56:35.561Z,2856
2018-03-27T05:57:37.180Z,3048
2018-03-27T05:58:38.797Z,3168
2018-03-27T05:59:40.408Z,3308
2018-03-27T06:00:42.019Z,3468
2018-03-27T06:01:43.634Z,3648
2018-03-27T06:02:45.244Z,3840
2018-03-27T06:03:46.863Z,4012
2018-03-27T06:04:49.053Z,4236
2018-03-27T06:05:50.672Z,4484
2018-03-27T06:06:52.280Z,4776
2018-03-27T06:07:53.895Z,5020
2018-03-27T06:08:55.505Z,5268
2018-03-27T06:09:57.116Z,5440
2018-03-27T06:10:58.736Z,5568
2018-03-27T06:12:00.345Z,5636
2018-03-27T06:13:01.963Z,5724
2018-03-27T06:14:03.575Z,5844
2018-03-27T06:15:05.190Z,5856
2018-03-27T06:16:06.805Z,5896
2018-03-27T06:17:09.187Z,5920
2018-03-27T06:18:10.800Z,5948
2018-03-27T06:19:12.416Z,5896
2018-03-27T06:20:14.039Z,5904
2018-03-27T06:21:15.644Z,5860
2018-03-27T06:22:17.255Z,5744
2018-03-27T06:23:18.876Z,5656
2018-03-27T06:24:20.487Z,5524
2018-03-27T06:25:22.103Z,5252
2018-03-27T06:26:23.720Z,5172
2018-03-27T06:27:25.357Z,5088
2018-03-27T06:28:26.946Z,5316
2018-03-27T06:29:28.562Z,5280
2018-03-27T06:30:30.175Z,5468
2018-03-27T06:31:31.787Z,5684
2018-03-27T06:32:33.405Z,5944
2018-03-27T06:33:35.018Z,6096
2018-03-27T06:34:36.632Z,6072
2018-03-27T06:35:38.247Z,6032
2018-03-27T06:36:39.867Z,5976
2018-03-27T06:37:41.479Z,5936
2018-03-27T06:38:43.089Z,5912
2018-03-27T06:39:44.705Z,5908
2018-03-27T06:40:46.319Z,5904
2018-03-27T06:41:47.936Z,5952
2018-03-27T06:42:49.546Z,6084
2018-03-27T06:43:51.156Z,6148
2018-03-27T06:44:52.770Z,6296
2018-03-27T06:45:54.384Z,6488
2018-03-27T06:46:55.995Z,6700
2018-03-27T06:47:57.615Z,6864
2018-03-27T06:48:59.233Z,7020
2018-03-27T06:50:00.842Z,7180
2018-03-27T06:51:02.452Z,7388
2018-03-27T06:52:04.069Z,7612
2018-03-27T06:53:05.685Z,7852
2018-03-27T06:54:07.296Z,8116
2018-03-27T06:55:08.915Z,8732
2018-03-27T06:56:10.528Z,8800
2018-03-27T06:57:12.143Z,9464
2018-03-27T06:58:13.750Z,9640
2018-03-27T06:59:15.366Z,12532
2018-03-27T07:00:16.979Z,10768
2018-03-27T07:01:18.599Z,16512
2018-03-27T07:02:20.229Z,24672
2018-03-27T07:03:21.837Z,25792
2018-03-27T07:04:23.484Z,23584
2018-03-27T07:05:25.136Z,25440
2018-03-27T07:06:26.686Z,16608
2018-03-27T07:07:28.308Z,24864
2018-03-27T07:08:29.924Z,28960
2018-03-27T07:09:31.545Z,29632
2018-03-27T07:10:33.172Z,31520
2018-03-27T07:11:34.820Z,28352
2018-03-27T07:12:36.407Z,27776
2018-03-27T07:13:38.030Z,29856
2018-03-27T07:14:40.462Z,29760
2018-03-27T07:15:42.112Z,28736
2018-03-27T07:16:43.707Z,28864
2018-03-27T07:17:45.344Z,30592
2018-03-27T07:18:46.961Z,28320
2018-03-27T07:19:48.579Z,29728
2018-03-27T07:20:50.189Z,29152
2018-03-27T07:21:51.818Z,32000
2018-03-27T07:22:53.436Z,29856
2018-03-27T07:23:55.060Z,25632
2018-03-27T07:24:56.690Z,27360
2018-03-27T07:25:58.308Z,28192
2018-03-27T07:26:59.939Z,28832
2018-03-27T07:28:01.560Z,27072
2018-03-27T07:29:03.183Z,27136
2018-03-27T07:30:04.813Z,28480
2018-03-27T07:31:06.437Z,27616
2018-03-27T07:32:08.061Z,28800
2018-03-27T07:33:09.691Z,30784
2018-03-27T07:34:11.315Z,30976
2018-03-27T07:35:12.942Z,29984
2018-03-27T07:36:14.572Z,30592
2018-03-27T07:37:16.198Z,32384
2018-03-27T07:38:17.829Z,32352
2018-03-27T07:39:19.456Z,30848
2018-03-27T07:40:21.077Z,30976
2018-03-27T07:41:22.706Z,31040
2018-03-27T07:42:24.331Z,31744
2018-03-27T07:43:25.961Z,32288
2018-03-27T07:44:27.591Z,32960
2018-03-27T07:45:29.215Z,32192
2018-03-27T07:46:30.852Z,31008
2018-03-27T07:47:32.476Z,31680
2018-03-27T07:48:34.104Z,33824
2018-03-27T07:49:35.763Z,38272
2018-03-27T07:50:37.358Z,36000
2018-03-27T07:51:38.990Z,30720
2018-03-27T07:52:40.615Z,34592
2018-03-27T07:53:42.248Z,35744
2018-03-27T07:54:43.872Z,37376
2018-03-27T07:55:45.500Z,37184
2018-03-27T07:56:47.129Z,36736
2018-03-27T07:57:48.759Z,42976
2018-03-27T07:58:50.386Z,48768
2018-03-27T07:59:52.019Z,46944
2018-03-27T08:00:53.655Z,45888
2018-03-27T08:01:55.277Z,36480
2018-03-27T08:02:56.907Z,31392
2018-03-27T08:03:58.573Z,30816
2018-03-27T08:05:00.163Z,29056
2018-03-27T08:06:01.800Z,29504
2018-03-27T08:07:03.428Z,29728
2018-03-27T08:08:05.058Z,29728
2018-03-27T08:09:06.690Z,29920
2018-03-27T08:10:08.322Z,30176
2018-03-27T08:11:09.992Z,30560
2018-03-27T08:12:11.583Z,31040
2018-03-27T08:13:13.225Z,31232
2018-03-27T08:14:14.849Z,31488
2018-03-27T08:15:16.483Z,31840
2018-03-27T08:16:18.110Z,32096
2018-03-27T08:17:19.744Z,32480
2018-03-27T08:18:21.373Z,32832
2018-03-27T08:19:23.004Z,33312
2018-03-27T08:20:24.642Z,33792
2018-03-27T08:21:26.266Z,34496
2018-03-27T08:22:27.904Z,34400
2018-03-27T08:23:29.531Z,34560
2018-03-27T08:24:31.171Z,34912
2018-03-27T08:25:32.799Z,35296
2018-03-27T08:26:34.432Z,35584
2018-03-27T08:27:36.061Z,35840
2018-03-27T08:28:37.691Z,36032
2018-03-27T08:29:39.335Z,35904
2018-03-27T08:30:40.956Z,36096
2018-03-27T08:31:42.594Z,36096
2018-03-27T08:32:44.220Z,36032
2018-03-27T08:33:45.856Z,36128
2018-03-27T08:34:47.487Z,35872
2018-03-27T08:35:49.123Z,36064
2018-03-27T08:36:50.756Z,35648
2018-03-27T08:37:52.388Z,35424
2018-03-27T08:38:54.017Z,35072
2018-03-27T08:39:55.646Z,34720
2018-03-27T08:40:57.287Z,34368
2018-03-27T08:41:58.921Z,34240
2018-03-27T08:43:00.557Z,33824
2018-03-27T08:44:02.190Z,33440
2018-03-27T08:45:03.823Z,33184
2018-03-27T08:46:05.461Z,33152
2018-03-27T08:47:07.084Z,32736
2018-03-27T08:48:08.719Z,32864
2018-03-27T08:49:10.354Z,32704
2018-03-27T08:50:11.989Z,32960
2018-03-27T08:51:13.622Z,32928
2018-03-27T08:52:15.257Z,34336
2018-03-27T08:53:16.889Z,40224
2018-03-27T08:54:18.517Z,47456
2018-03-27T08:55:20.156Z,51744
2018-03-27T08:56:21.793Z,55968
2018-03-27T08:57:23.426Z,60928
2018-03-27T08:58:25.065Z,66944
2018-03-27T08:59:26.698Z,71392
2018-03-27T09:00:28.331Z,72768
2018-03-27T09:01:29.968Z,74560
2018-03-27T09:02:31.604Z,75104
2018-03-27T09:03:33.235Z,76128
2018-03-27T09:04:34.874Z,76256
2018-03-27T09:05:36.507Z,76928
2018-03-27T09:06:38.136Z,74144
2018-03-27T09:07:39.775Z,75072
2018-03-27T09:08:41.403Z,75840
2018-03-27T09:09:43.040Z,75072
2018-03-27T09:10:44.675Z,75424
2018-03-27T09:11:46.305Z,73632
2018-03-27T09:12:47.947Z,71488
2018-03-27T09:13:49.630Z,74208
2018-03-27T09:14:51.212Z,75456
2018-03-27T09:15:52.844Z,75904
2018-03-27T09:16:54.481Z,70784
2018-03-27T09:17:56.118Z,77248
2018-03-27T09:18:57.752Z,74912
2018-03-27T09:19:59.382Z,74400
2018-03-27T09:21:01.016Z,73984
2018-03-27T09:22:02.658Z,76768
2018-03-27T09:23:04.283Z,75904
2018-03-27T09:24:05.914Z,75712
2018-03-27T09:25:07.549Z,75744
2018-03-27T09:26:09.185Z,75904
2018-03-27T09:27:10.820Z,73856
2018-03-27T09:28:12.454Z,71072
2018-03-27T09:29:14.083Z,80000
2018-03-27T09:30:15.722Z,84352
2018-03-27T09:31:17.392Z,83296
2018-03-27T09:32:18.993Z,81376
2018-03-27T09:33:20.624Z,83744
2018-03-27T09:34:22.261Z,86560
2018-03-27T09:35:23.960Z,85824
2018-03-27T09:36:25.528Z,87360
2018-03-27T09:37:27.160Z,89024
2018-03-27T09:38:28.798Z,89568
2018-03-27T09:39:30.426Z,85696
2018-03-27T09:40:32.064Z,84384
2018-03-27T09:41:33.699Z,86560
2018-03-27T09:42:35.329Z,85984
2018-03-27T09:43:36.971Z,77344
2018-03-27T09:44:38.599Z,77568
2018-03-27T09:45:40.234Z,85536
2018-03-27T09:46:41.875Z,62112
2018-03-27T09:47:43.512Z,61856
2018-03-27T09:48:45.149Z,55424
2018-03-27T09:49:46.780Z,53824
2018-03-27T09:50:48.416Z,47104
2018-03-27T09:51:50.053Z,53696
2018-03-27T09:52:51.692Z,65632
2018-03-27T09:53:53.314Z,66624
2018-03-27T09:54:54.956Z,64864
2018-03-27T09:55:56.590Z,68864
2018-03-27T09:56:58.223Z,67744
2018-03-27T09:57:59.862Z,66880
2018-03-27T09:59:01.497Z,44384
2018-03-27T10:00:03.127Z,63648
2018-03-27T10:01:04.765Z,54656
2018-03-27T10:02:06.399Z,69088
2018-03-27T10:03:08.041Z,61824
2018-03-27T10:04:09.676Z,55520
2018-03-27T10:05:11.305Z,39648
2018-03-27T10:06:12.940Z,32160
2018-03-27T10:07:14.574Z,24480
2018-03-27T10:08:16.207Z,22400
2018-03-27T10:09:17.846Z,21376
2018-03-27T10:10:19.482Z,20000
2018-03-27T10:11:21.117Z,18432
2018-03-27T10:12:22.750Z,19712
2018-03-27T10:13:24.376Z,20768
2018-03-27T10:14:26.011Z,19296
2018-03-27T10:15:27.637Z,17568
2018-03-27T10:16:29.273Z,16532
2018-03-27T10:17:30.904Z,18592
2018-03-27T10:18:32.528Z,18976
2018-03-27T10:19:34.158Z,18752
2018-03-27T10:20:35.787Z,20032
2018-03-27T10:21:37.413Z,21472
2018-03-27T10:22:39.047Z,22720
2018-03-27T10:23:40.675Z,23776
2018-03-27T10:24:42.303Z,24608
2018-03-27T10:25:43.928Z,26432
2018-03-27T10:26:45.557Z,28672
2018-03-27T10:27:47.184Z,32736
2018-03-27T10:28:48.807Z,51872
2018-03-27T10:29:50.438Z,48992
2018-03-27T10:30:52.069Z,77216
2018-03-27T10:31:53.693Z,72864
2018-03-27T10:32:55.317Z,75808
2018-03-27T10:33:56.946Z,81184
2018-03-27T10:34:58.569Z,84288
2018-03-27T10:36:00.200Z,74304
2018-03-27T10:37:01.876Z,61344
2018-03-27T10:38:03.505Z,47168
2018-03-27T10:39:05.136Z,41632
2018-03-27T10:40:06.763Z,42272
2018-03-27T10:41:08.386Z,47200
2018-03-27T10:42:10.023Z,40672
2018-03-27T10:43:11.649Z,35744
2018-03-27T10:44:13.278Z,30944
2018-03-27T10:45:14.910Z,27296
2018-03-27T10:46:16.537Z,26304
2018-03-27T10:47:18.170Z,22336
2018-03-27T10:48:19.794Z,20512
2018-03-27T10:49:21.424Z,20448
2018-03-27T10:50:23.054Z,21248
2018-03-27T10:51:24.679Z,22784
2018-03-27T10:52:26.310Z,21504
2018-03-27T10:53:27.940Z,17408
2018-03-27T10:54:29.569Z,13632
2018-03-27T10:55:31.198Z,11764
2018-03-27T10:56:32.820Z,9932
2018-03-27T10:57:34.449Z,8284
2018-03-27T10:58:36.069Z,7724
2018-03-27T10:59:37.693Z,7988
2018-03-27T11:00:39.320Z,8288
2018-03-27T11:01:40.945Z,8368
2018-03-27T11:02:42.565Z,8804
2018-03-27T11:03:44.219Z,9336
2018-03-27T11:04:45.814Z,10760
2018-03-27T11:05:47.436Z,12872
2018-03-27T11:06:49.065Z,13540
2018-03-27T11:07:50.685Z,13060
2018-03-27T11:08:52.312Z,14120
2018-03-27T11:09:53.937Z,16992
2018-03-27T11:10:55.556Z,12764
2018-03-27T11:11:57.184Z,11560
2018-03-27T11:12:58.802Z,10628
2018-03-27T11:14:00.429Z,10500
2018-03-27T11:15:02.055Z,10508
2018-03-27T11:16:03.679Z,10408
2018-03-27T11:17:05.295Z,10236
2018-03-27T11:18:06.917Z,10232
2018-03-27T11:19:08.543Z,10332
2018-03-27T11:20:10.160Z,11128
2018-03-27T11:21:11.794Z,12844
2018-03-27T11:22:14.140Z,15000
2018-03-27T11:23:15.797Z,20064
2018-03-27T11:24:17.380Z,23072
2018-03-27T11:25:19.008Z,22432
2018-03-27T11:26:20.630Z,19872
2018-03-27T11:27:22.254Z,17696
2018-03-27T11:28:23.880Z,16240
2018-03-27T11:29:25.579Z,16320
2018-03-27T11:30:27.122Z,17760
2018-03-27T11:31:28.752Z,20256
2018-03-27T11:32:30.369Z,23744
2018-03-27T11:33:31.996Z,28544
2018-03-27T11:34:33.617Z,33216
2018-03-27T11:35:35.246Z,47904
2018-03-27T11:36:36.868Z,52352
2018-03-27T11:37:38.493Z,56960
2018-03-27T11:38:40.117Z,69984
2018-03-27T11:39:41.739Z,60160
2018-03-27T11:40:43.363Z,56576
2018-03-27T11:41:44.991Z,38688
2018-03-27T11:42:46.614Z,34944
2018-03-27T11:43:48.239Z,41280
2018-03-27T11:44:50.616Z,44416
2018-03-27T11:45:52.239Z,44768
2018-03-27T11:46:53.864Z,32064
2018-03-27T11:47:55.494Z,21760
2018-03-27T11:48:57.120Z,21792
2018-03-27T11:49:58.751Z,22304
2018-03-27T11:51:00.380Z,24032
2018-03-27T11:52:02.002Z,27936
2018-03-27T11:53:03.625Z,25920
2018-03-27T11:54:05.253Z,28672
2018-03-27T11:55:06.875Z,28416
2018-03-27T11:56:08.504Z,27488
2018-03-27T11:57:10.135Z,21888
2018-03-27T11:58:11.759Z,18816
2018-03-27T11:59:13.385Z,17856
2018-03-27T12:00:15.015Z,18144
2018-03-27T12:01:16.648Z,18688
2018-03-27T12:02:18.272Z,18496
2018-03-27T12:03:19.898Z,16936
2018-03-27T12:04:21.523Z,15332
2018-03-27T12:05:23.157Z,14972
2018-03-27T12:06:24.779Z,16180
2018-03-27T12:07:26.502Z,19264
2018-03-27T12:08:28.027Z,18208
2018-03-27T12:09:29.649Z,16884
2018-03-27T12:10:31.277Z,16908
2018-03-27T12:11:32.898Z,17504
2018-03-27T12:12:34.523Z,18880
2018-03-27T12:13:36.149Z,17856
2018-03-27T12:14:37.769Z,17632
2018-03-27T12:15:39.394Z,20864
2018-03-27T12:16:41.019Z,18816
2018-03-27T12:17:42.643Z,16292
2018-03-27T12:18:44.269Z,15208
2018-03-27T12:19:45.895Z,13968
2018-03-27T12:20:47.521Z,13372
2018-03-27T12:21:49.151Z,12848
2018-03-27T12:22:50.771Z,13248
2018-03-27T12:23:52.394Z,13520
2018-03-27T12:24:54.045Z,14404
2018-03-27T12:25:55.641Z,16628
2018-03-27T12:26:57.268Z,16180
2018-03-27T12:27:58.888Z,18016
2018-03-27T12:29:00.510Z,15868
2018-03-27T12:30:02.130Z,15756
2018-03-27T12:31:03.757Z,14912
2018-03-27T12:32:05.379Z,13980
2018-03-27T12:33:07.007Z,14516
2018-03-27T12:34:08.633Z,14864
2018-03-27T12:35:10.255Z,14996
2018-03-27T12:36:11.878Z,13328
2018-03-27T12:37:13.500Z,11056
2018-03-27T12:38:15.123Z,9360
2018-03-27T12:39:17.380Z,8668
2018-03-27T12:40:19.008Z,9028
2018-03-27T12:41:20.632Z,9956
2018-03-27T12:42:22.255Z,10976
2018-03-27T12:43:23.877Z,11296
2018-03-27T12:44:25.501Z,13120
2018-03-27T12:45:27.124Z,15188
2018-03-27T12:46:28.765Z,17024
2018-03-27T12:47:30.385Z,19904
2018-03-27T12:48:32.008Z,32640
2018-03-27T12:49:33.628Z,54208
2018-03-27T12:50:35.252Z,62496
2018-03-27T12:51:36.875Z,48032
2018-03-27T12:52:38.498Z,67520
2018-03-27T12:53:40.122Z,56480
2018-03-27T12:54:41.749Z,38144
2018-03-27T12:55:43.372Z,41600
2018-03-27T12:56:44.997Z,39968
2018-03-27T12:57:46.625Z,30304
2018-03-27T12:58:48.250Z,25856
2018-03-27T12:59:49.878Z,23040
2018-03-27T13:00:51.503Z,23936
2018-03-27T13:01:53.125Z,21696
2018-03-27T13:02:54.755Z,22208
2018-03-27T13:03:56.372Z,22208
2018-03-27T13:04:57.996Z,21088
2018-03-27T13:05:59.621Z,20544
2018-03-27T13:07:01.244Z,21760
2018-03-27T13:08:02.871Z,20960
2018-03-27T13:09:04.497Z,19648
2018-03-27T13:10:06.120Z,18784
2018-03-27T13:11:07.747Z,17632
2018-03-27T13:12:09.368Z,15988
2018-03-27T13:13:10.992Z,14680
2018-03-27T13:14:12.615Z,13944
2018-03-27T13:15:14.233Z,13380
2018-03-27T13:16:15.863Z,13164
2018-03-27T13:17:17.481Z,12672
2018-03-27T13:18:19.104Z,12036
2018-03-27T13:19:20.725Z,12100
2018-03-27T13:20:22.343Z,13072
2018-03-27T13:21:23.970Z,15692
2018-03-27T13:22:25.591Z,21152
2018-03-27T13:23:27.250Z,17664
2018-03-27T13:24:28.839Z,17376
2018-03-27T13:25:30.459Z,15476
2018-03-27T13:26:32.083Z,15696
2018-03-27T13:27:33.705Z,16452
2018-03-27T13:28:35.376Z,16368
2018-03-27T13:29:36.953Z,16284
2018-03-27T13:30:38.571Z,16516
2018-03-27T13:31:40.196Z,17056
2018-03-27T13:32:41.821Z,18272
2018-03-27T13:33:43.442Z,18048
2018-03-27T13:34:45.059Z,17632
2018-03-27T13:35:46.698Z,16456
2018-03-27T13:36:48.318Z,15392
2018-03-27T13:37:50.874Z,14124
2018-03-27T13:38:52.552Z,11936
2018-03-27T13:39:54.110Z,10064
2018-03-27T13:40:55.733Z,8948
2018-03-27T13:41:57.349Z,8724
2018-03-27T13:42:58.975Z,8708
2018-03-27T13:44:00.599Z,8076
2018-03-27T13:45:02.220Z,7360
2018-03-27T13:46:03.841Z,6840
2018-03-27T13:47:05.453Z,6636
2018-03-27T13:48:07.075Z,6780
2018-03-27T13:49:08.698Z,6548
2018-03-27T13:50:10.313Z,6100
2018-03-27T13:51:11.931Z,6060
2018-03-27T13:52:13.548Z,6520
2018-03-27T13:53:15.176Z,7044
2018-03-27T13:54:16.794Z,7204
2018-03-27T13:55:18.411Z,7364
2018-03-27T13:56:20.034Z,7792
2018-03-27T13:57:21.651Z,8244
2018-03-27T13:58:23.272Z,7912